createdAt,value
2023-03-20T00:00:43.583Z,79.90
2023-03-20T00:03:46.107Z,80.30
2023-03-20T00:06:47.995Z,80.20
2023-03-20T00:09:49.869Z,80.00
2023-03-20T00:12:51.917Z,80.20
2023-03-20T00:15:56.690Z,80.20
2023-03-20T00:18:58.908Z,80.20
2023-03-20T00:22:01.197Z,80.70
2023-03-20T00:25:05.172Z,80.60
2023-03-20T00:28:25.714Z,80.90
2023-03-20T00:31:32.351Z,81.10
2023-03-20T00:34:34.352Z,81.50
2023-03-20T00:37:36.403Z,81.30
2023-03-20T00:40:38.520Z,81.20
2023-03-20T00:43:40.682Z,81.60
2023-03-20T00:46:44.429Z,81.30
2023-03-20T00:49:49.287Z,81.40
2023-03-20T00:52:52.000Z,81.40
2023-03-20T00:55:53.990Z,81.60
2023-03-20T00:58:56.301Z,81.50
2023-03-20T01:02:01.332Z,81.60
2023-03-20T01:05:03.742Z,81.40
2023-03-20T01:08:25.477Z,81.40
2023-03-20T01:11:28.033Z,81.50
2023-03-20T01:14:29.941Z,81.40
2023-03-20T01:17:31.911Z,81.10
2023-03-20T01:20:33.843Z,81.50
2023-03-20T01:23:35.734Z,81.40
2023-03-20T01:26:42.357Z,81.50
2023-03-20T01:29:44.449Z,81.30
2023-03-20T01:32:48.003Z,81.20
2023-03-20T01:35:50.943Z,81.40
2023-03-20T01:38:57.235Z,81.00
2023-03-20T01:42:00.981Z,80.90
2023-03-20T01:45:16.147Z,81.20
2023-03-20T01:48:19.004Z,81.00
2023-03-20T01:51:23.497Z,81.10
2023-03-20T01:54:36.020Z,80.90
2023-03-20T01:57:41.438Z,81.00
2023-03-20T02:00:45.003Z,80.90
2023-03-20T02:03:51.748Z,81.20
2023-03-20T02:07:10.844Z,81.20
2023-03-20T02:10:18.337Z,81.20
2023-03-20T02:13:41.438Z,81.40
2023-03-20T02:16:43.563Z,81.30
2023-03-20T02:20:03.352Z,81.50
2023-03-20T02:23:41.274Z,81.40
2023-03-20T02:27:15.011Z,81.20
2023-03-20T02:30:29.169Z,81.50
2023-03-20T02:33:47.706Z,81.60
2023-03-20T02:37:13.628Z,81.50
2023-03-20T02:40:48.184Z,81.40
2023-03-20T02:44:05.576Z,81.10
2023-03-20T02:47:17.454Z,81.70
2023-03-20T02:50:36.007Z,81.60
2023-03-20T02:53:53.434Z,81.60
2023-03-20T02:57:10.629Z,82.00
2023-03-20T03:00:34.168Z,82.20
2023-03-20T03:03:50.306Z,81.90
2023-03-20T03:06:54.662Z,81.90
2023-03-20T03:10:06.984Z,82.10
2023-03-20T03:13:15.600Z,82.00
2023-03-20T03:16:35.990Z,81.90
2023-03-20T03:19:42.112Z,82.10
2023-03-20T03:22:44.851Z,82.40
2023-03-20T03:25:47.078Z,82.50
2023-03-20T03:29:02.195Z,82.60
2023-03-20T03:32:06.758Z,82.60
2023-03-20T03:35:16.580Z,82.90
2023-03-20T03:38:21.348Z,83.10
2023-03-20T03:41:26.249Z,83.30
2023-03-20T03:44:37.945Z,83.30
2023-03-20T03:47:58.008Z,83.00
2023-03-20T03:51:11.576Z,82.70
2023-03-20T03:54:35.896Z,83.10
2023-03-20T03:58:30.387Z,83.10
2023-03-20T04:01:34.413Z,82.90
2023-03-20T04:04:39.472Z,83.10
2023-03-20T04:07:45.755Z,82.90
2023-03-20T04:10:47.764Z,83.20
2023-03-20T04:13:52.677Z,83.30
2023-03-20T04:16:55.293Z,83.20
2023-03-20T04:19:57.651Z,83.50
2023-03-20T04:22:59.883Z,83.10
2023-03-20T04:26:02.723Z,83.30
2023-03-20T04:29:09.916Z,83.10
2023-03-20T04:32:30.348Z,83.10
2023-03-20T04:35:37.985Z,83.50
2023-03-20T04:38:46.722Z,83.40
2023-03-20T04:41:48.649Z,83.40
2023-03-20T04:44:53.020Z,83.20
2023-03-20T04:47:54.900Z,83.50
2023-03-20T04:50:58.204Z,83.20
2023-03-20T04:54:11.874Z,83.30
2023-03-20T04:57:13.853Z,83.30
2023-03-20T05:00:17.787Z,82.80
2023-03-20T05:03:21.915Z,83.00
2023-03-20T05:06:25.647Z,83.40
2023-03-20T05:09:27.588Z,83.20
2023-03-20T05:12:30.842Z,83.20
2023-03-20T05:15:55.788Z,83.30
2023-03-20T05:19:06.621Z,83.10
2023-03-20T05:22:25.848Z,82.80
2023-03-20T05:25:43.269Z,82.90
2023-03-20T05:28:55.962Z,82.90
2023-03-20T05:32:18.219Z,82.60
2023-03-20T05:35:39.803Z,82.70
2023-03-20T05:38:59.236Z,83.00
2023-03-20T05:42:19.707Z,82.70
2023-03-20T05:45:49.755Z,82.70
2023-03-20T05:49:23.066Z,82.40
2023-03-20T05:52:27.954Z,82.30
2023-03-20T05:55:40.719Z,82.40
2023-03-20T05:59:05.769Z,82.10
2023-03-20T06:02:28.017Z,82.40
2023-03-20T06:05:39.888Z,82.00
2023-03-20T06:08:42.483Z,81.70
2023-03-20T06:11:44.594Z,81.70
2023-03-20T06:14:46.994Z,81.60
2023-03-20T06:17:49.288Z,81.10
2023-03-20T06:20:55.516Z,80.60
2023-03-20T06:23:58.752Z,80.80
2023-03-20T06:27:00.881Z,81.20
2023-03-20T06:30:04.482Z,81.00
2023-03-20T06:33:09.943Z,81.70
2023-03-20T06:36:24.402Z,81.60
2023-03-20T06:39:32.388Z,81.40
2023-03-20T06:42:34.641Z,81.70
2023-03-20T06:45:38.032Z,81.60
2023-03-20T06:48:48.835Z,81.80
2023-03-20T06:51:51.212Z,81.80
2023-03-20T06:54:59.211Z,82.00
2023-03-20T06:58:01.144Z,81.40
2023-03-20T07:01:10.397Z,81.50
2023-03-20T07:04:12.450Z,81.50
2023-03-20T07:07:21.851Z,81.60
2023-03-20T07:10:23.746Z,81.60
2023-03-20T07:13:27.808Z,81.30
2023-03-20T07:16:32.409Z,81.30
2023-03-20T07:19:35.811Z,81.70
2023-03-20T07:22:41.116Z,81.30
2023-03-20T07:25:53.225Z,81.20
2023-03-20T07:28:55.157Z,81.00
2023-03-20T07:31:59.837Z,81.00
2023-03-20T07:35:06.211Z,80.70
2023-03-20T07:38:08.256Z,80.50
2023-03-20T07:41:19.270Z,80.70
2023-03-20T07:44:32.802Z,80.80
2023-03-20T07:47:36.593Z,80.50
2023-03-20T07:50:40.100Z,79.90
2023-03-20T07:53:42.367Z,79.20
2023-03-20T07:56:45.382Z,79.60
2023-03-20T07:59:47.451Z,78.70
2023-03-20T08:02:49.535Z,78.70
2023-03-20T08:05:52.072Z,78.60
2023-03-20T08:08:54.420Z,77.80
2023-03-20T08:11:56.356Z,78.30
2023-03-20T08:14:58.303Z,77.10
2023-03-20T08:18:00.123Z,77.20
2023-03-20T08:21:02.005Z,77.00
2023-03-20T08:24:04.129Z,76.30
2023-03-20T08:27:06.006Z,75.80
2023-03-20T08:30:09.281Z,75.40
2023-03-20T08:33:11.801Z,74.70
2023-03-20T08:36:14.687Z,74.80
2023-03-20T08:39:16.635Z,74.90
2023-03-20T08:42:18.640Z,75.00
2023-03-20T08:45:20.645Z,75.30
2023-03-20T08:48:23.876Z,74.60
2023-03-20T08:51:26.082Z,75.00
2023-03-20T08:54:28.896Z,74.50
2023-03-20T08:57:30.792Z,75.10
2023-03-20T09:00:32.672Z,74.70
2023-03-20T09:03:34.783Z,74.90
2023-03-20T09:06:37.729Z,74.90
2023-03-20T09:09:42.124Z,75.00
2023-03-20T09:12:44.258Z,74.70
2023-03-20T09:15:46.317Z,74.80
2023-03-20T09:18:48.322Z,74.90
2023-03-20T09:21:50.450Z,75.00
2023-03-20T09:24:52.523Z,74.70
2023-03-20T09:27:54.993Z,74.50
2023-03-20T09:30:57.704Z,73.80
2023-03-20T09:33:59.701Z,73.50
2023-03-20T09:37:01.735Z,72.70
2023-03-20T09:40:04.652Z,71.20
2023-03-20T09:43:40.455Z,70.50
2023-03-20T09:46:48.046Z,69.10
2023-03-20T09:50:13.094Z,67.00
2023-03-20T09:53:32.819Z,61.60
2023-03-20T09:56:34.767Z,57.70
2023-03-20T09:59:37.361Z,56.20
2023-03-20T10:02:47.905Z,55.80
2023-03-20T10:06:00.850Z,55.70
2023-03-20T10:09:07.050Z,56.10
2023-03-20T10:12:33.806Z,55.10
2023-03-20T10:15:55.408Z,55.80
2023-03-20T10:19:13.037Z,54.60
2023-03-20T10:22:34.770Z,55.00
2023-03-20T10:25:55.071Z,55.60
2023-03-20T10:28:59.584Z,55.40
2023-03-20T10:32:38.586Z,56.00
2023-03-20T10:35:46.558Z,57.50
2023-03-20T10:39:06.210Z,55.40
2023-03-20T10:42:19.546Z,54.80
2023-03-20T10:45:40.839Z,52.70
2023-03-20T10:48:50.986Z,50.00
2023-03-20T10:51:56.230Z,51.40
2023-03-20T10:55:07.941Z,51.70
2023-03-20T10:58:24.483Z,51.50
2023-03-20T11:01:26.972Z,53.20
2023-03-20T11:04:28.997Z,54.20
2023-03-20T11:07:37.183Z,54.10
2023-03-20T11:10:43.222Z,55.70
2023-03-20T11:13:45.394Z,56.10
2023-03-20T11:16:50.136Z,56.30
2023-03-20T11:19:51.996Z,56.60
2023-03-20T11:23:03.739Z,55.60
2023-03-20T11:26:13.815Z,56.10
2023-03-20T11:29:31.565Z,55.30
2023-03-20T11:32:36.074Z,54.20
2023-03-20T11:35:38.284Z,52.10
2023-03-20T11:38:44.835Z,50.70
2023-03-20T11:41:51.526Z,49.00
2023-03-20T11:45:02.852Z,48.90
2023-03-20T11:48:06.302Z,48.60
2023-03-20T12:03:45.542Z,50.00
2023-03-20T12:06:56.312Z,50.20
2023-03-20T12:10:02.649Z,50.20
2023-03-20T12:13:16.696Z,50.70
2023-03-20T12:16:22.668Z,50.80
2023-03-20T12:19:30.037Z,49.50
2023-03-20T12:22:40.114Z,48.30
2023-03-20T12:26:02.963Z,48.40
2023-03-20T12:29:29.043Z,48.90
2023-03-20T12:32:35.855Z,49.10
2023-03-20T12:35:47.745Z,48.30
2023-03-20T12:38:49.768Z,48.70
2023-03-20T12:42:22.488Z,47.60
2023-03-20T12:45:32.041Z,48.30
2023-03-20T12:48:49.279Z,47.40
2023-03-20T12:52:15.129Z,49.10
2023-03-20T12:55:23.312Z,48.80
2023-03-20T12:58:45.011Z,49.80
2023-03-20T13:01:58.525Z,48.40
2023-03-20T13:05:08.055Z,49.40
2023-03-20T13:08:36.492Z,49.00
2023-03-20T13:11:49.466Z,48.90
2023-03-20T13:15:14.640Z,50.50
2023-03-20T13:18:29.628Z,49.50
2023-03-20T13:21:54.035Z,48.70
2023-03-20T13:25:08.839Z,49.60
2023-03-20T13:28:21.491Z,49.70
2023-03-20T13:31:44.727Z,49.50
2023-03-20T13:35:23.608Z,48.90
2023-03-20T13:38:31.821Z,47.70
2023-03-20T13:41:35.931Z,48.10
2023-03-20T13:44:39.074Z,48.20
2023-03-20T13:47:42.288Z,46.90
2023-03-20T13:51:08.044Z,47.50
2023-03-20T13:54:21.782Z,48.10
2023-03-20T13:57:58.589Z,47.80
2023-03-20T14:01:23.010Z,47.90
2023-03-20T14:04:26.957Z,47.50
2023-03-20T14:07:35.843Z,49.00
2023-03-20T14:10:38.423Z,48.70
2023-03-20T14:13:46.175Z,47.90
2023-03-20T14:16:48.151Z,48.60
2023-03-20T14:19:51.204Z,48.20
2023-03-20T14:22:53.191Z,48.40
2023-03-20T14:25:57.130Z,49.50
2023-03-20T14:29:21.569Z,48.00
2023-03-20T14:32:33.186Z,48.90
2023-03-20T14:35:43.062Z,48.90
2023-03-20T14:39:25.818Z,49.60
2023-03-20T14:42:37.678Z,48.80
2023-03-20T14:45:55.575Z,48.70
2023-03-20T14:49:02.505Z,49.30
2023-03-20T14:52:35.709Z,50.70
2023-03-20T14:55:56.105Z,49.50
2023-03-20T14:59:01.417Z,48.70
2023-03-20T15:02:03.756Z,48.70
2023-03-20T15:05:05.905Z,48.20
2023-03-20T15:08:15.534Z,48.60
2023-03-20T15:11:18.355Z,48.10
2023-03-20T15:14:26.385Z,48.70
2023-03-20T15:17:37.045Z,48.30
2023-03-20T15:20:39.197Z,49.20
2023-03-20T15:23:46.498Z,48.50
2023-03-20T15:26:53.037Z,47.60
2023-03-20T15:29:56.201Z,48.40
2023-03-20T15:32:58.949Z,48.60
2023-03-20T15:36:19.494Z,49.10
2023-03-20T15:39:24.209Z,48.60
2023-03-20T15:42:26.655Z,47.00
2023-03-20T15:45:32.971Z,48.00
2023-03-20T15:48:34.992Z,49.10
2023-03-20T15:51:37.643Z,49.00
2023-03-20T15:54:42.614Z,49.30
2023-03-20T15:57:45.489Z,49.50
2023-03-20T16:00:49.361Z,49.10
2023-03-20T16:03:52.816Z,49.30
2023-03-20T16:06:59.698Z,49.50
2023-03-20T16:10:01.600Z,50.10
2023-03-20T16:13:06.699Z,50.30
2023-03-20T16:16:14.309Z,50.20
2023-03-20T16:19:17.121Z,50.80
2023-03-20T16:22:26.640Z,51.00
2023-03-20T16:25:28.977Z,51.60
2023-03-20T16:28:30.907Z,51.60
2023-03-20T16:31:35.272Z,51.40
2023-03-20T16:34:38.653Z,51.70
2023-03-20T16:37:55.463Z,52.20
2023-03-20T16:41:22.187Z,52.20
2023-03-20T16:44:30.221Z,52.20
2023-03-20T16:47:37.019Z,52.50
2023-03-20T16:50:54.956Z,53.30
2023-03-20T16:53:59.489Z,52.50
2023-03-20T16:57:02.011Z,53.40
2023-03-20T17:00:08.395Z,53.30
2023-03-20T17:03:16.692Z,53.70
2023-03-20T17:06:21.867Z,54.10
2023-03-20T17:09:26.860Z,55.70
2023-03-20T17:12:32.051Z,54.60
2023-03-20T17:15:33.911Z,55.40
2023-03-20T17:18:36.951Z,55.10
2023-03-20T17:21:38.984Z,55.20
2023-03-20T17:24:41.002Z,56.20
2023-03-20T17:27:44.304Z,56.00
2023-03-20T17:30:47.973Z,56.20
2023-03-20T17:33:49.872Z,56.10
2023-03-20T17:36:51.714Z,56.20
2023-03-20T17:39:53.622Z,56.60
2023-03-20T17:42:55.476Z,56.90
2023-03-20T17:45:58.661Z,57.70
2023-03-20T17:49:07.385Z,56.70
2023-03-20T17:52:17.932Z,56.80
2023-03-20T17:55:20.045Z,56.60
2023-03-20T17:58:22.950Z,56.80
2023-03-20T18:01:25.457Z,56.60
2023-03-20T18:04:27.466Z,56.90
2023-03-20T18:07:29.362Z,57.10
2023-03-20T18:10:31.671Z,57.20
2023-03-20T18:13:33.520Z,56.90
2023-03-20T18:16:35.441Z,58.50
2023-03-20T18:19:37.557Z,58.10
2023-03-20T18:22:39.495Z,59.10
2023-03-20T18:25:41.604Z,59.00
2023-03-20T18:28:43.515Z,58.80
2023-03-20T18:31:45.682Z,58.80
2023-03-20T18:34:47.576Z,58.20
2023-03-20T18:37:49.537Z,58.10
2023-03-20T18:40:51.546Z,58.00
2023-03-20T18:43:55.902Z,58.60
2023-03-20T18:46:57.823Z,57.60
2023-03-20T18:49:59.762Z,57.30
2023-03-20T18:53:03.840Z,59.30
2023-03-20T18:56:14.609Z,58.60
2023-03-20T18:59:16.456Z,59.30
2023-03-20T19:02:18.366Z,59.50
2023-03-20T19:05:20.671Z,58.20
2023-03-20T19:08:25.042Z,59.30
2023-03-20T19:11:27.204Z,59.20
2023-03-20T19:14:29.120Z,60.40
2023-03-20T19:17:31.028Z,60.80
2023-03-20T19:20:41.824Z,59.30
2023-03-20T19:23:43.857Z,59.90
2023-03-20T19:26:45.700Z,59.30
2023-03-20T19:29:50.146Z,60.90
2023-03-20T19:32:52.391Z,60.70
2023-03-20T19:36:02.703Z,59.40
2023-03-20T19:39:08.603Z,60.30
2023-03-20T19:42:46.836Z,60.10
2023-03-20T19:45:37.618Z,60.50
2023-03-20T19:48:50.167Z,60.60
2023-03-20T19:51:52.851Z,59.50
2023-03-20T19:55:02.560Z,59.80
2023-03-20T19:58:05.734Z,60.70
2023-03-20T20:01:14.849Z,60.70
2023-03-20T20:04:17.340Z,60.70
2023-03-20T20:10:44.715Z,60.20
2023-03-20T20:14:07.176Z,60.80
2023-03-20T20:17:08.800Z,63.10
2023-03-20T20:20:11.930Z,60.00
2023-03-20T20:23:16.046Z,59.80
2023-03-20T20:26:18.554Z,60.50
2023-03-20T20:29:21.249Z,62.00
2023-03-20T20:32:26.914Z,62.70
2023-03-20T20:35:54.191Z,63.50
2023-03-20T20:38:52.022Z,64.00
2023-03-20T20:41:54.099Z,64.30
2023-03-20T20:44:56.053Z,64.90
2023-03-20T20:47:57.936Z,65.20
2023-03-20T20:51:01.137Z,66.20
2023-03-20T20:54:03.178Z,64.60
2023-03-20T20:57:05.163Z,63.70
2023-03-20T21:00:08.650Z,63.90
2023-03-20T21:03:10.573Z,63.80
2023-03-20T21:06:13.192Z,63.70
2023-03-20T21:09:15.114Z,63.90
2023-03-20T21:12:33.437Z,63.60
2023-03-20T21:15:37.137Z,63.10
2023-03-20T21:18:39.282Z,62.60
2023-03-20T21:21:41.243Z,62.70
2023-03-20T21:24:43.897Z,62.50
2023-03-20T21:27:47.787Z,62.80
2023-03-20T21:31:20.420Z,63.20
2023-03-20T21:34:12.901Z,62.90
2023-03-20T21:38:22.862Z,62.30
2023-03-20T21:40:39.172Z,62.20
2023-03-20T21:43:41.226Z,62.60
2023-03-20T21:47:22.804Z,62.60
2023-03-20T21:54:29.584Z,63.30
2023-03-20T21:57:37.799Z,63.90
2023-03-20T22:07:45.003Z,66.50
2023-03-20T22:11:14.696Z,67.10
2023-03-20T22:14:39.075Z,67.10
2023-03-20T22:21:21.858Z,66.30
2023-03-20T22:24:48.653Z,66.20
2023-03-20T22:28:03.793Z,66.20
2023-03-20T22:31:19.561Z,66.00
2023-03-20T22:37:53.976Z,65.90
2023-03-20T22:41:32.122Z,65.70
2023-03-20T22:47:25.671Z,65.50
2023-03-20T22:50:28.093Z,66.40
2023-03-20T22:53:30.111Z,65.90
2023-03-20T22:56:32.208Z,65.80
2023-03-20T22:59:34.066Z,66.40
2023-03-20T23:02:36.760Z,66.80
2023-03-20T23:05:39.834Z,67.70
2023-03-20T23:08:49.225Z,67.80
2023-03-20T23:11:55.876Z,67.60
2023-03-20T23:14:58.164Z,68.10
2023-03-20T23:18:00.007Z,67.00
2023-03-20T23:21:02.584Z,67.10
2023-03-20T23:24:04.625Z,67.10
2023-03-20T23:27:06.537Z,66.70
2023-03-20T23:30:11.200Z,66.90
2023-03-20T23:33:13.064Z,66.40
2023-03-20T23:36:28.875Z,66.00
2023-03-20T23:39:37.082Z,68.10
2023-03-20T23:42:38.959Z,69.30
2023-03-20T23:45:40.915Z,69.60
2023-03-20T23:48:42.881Z,69.40
2023-03-20T23:51:44.810Z,69.20
2023-03-20T23:54:49.114Z,69.10
2023-03-20T23:57:51.047Z,70.00
